sensor_id;sensor_type;location;lat;lon;timestamp;pressure;altitude;pressure_sealevel;temperature;humidity
5952;BME280;3001;42.622;23.194;2022-08-01T00:01:12;91364.94;;;17.22;99.69
5952;BME280;3001;42.622;23.194;2022-08-01T00:03:39;91367.72;;;17.14;99.77
5952;BME280;3001;42.622;23.194;2022-08-01T00:06:07;91359.75;;;17.10;99.91
5952;BME280;3001;42.622;23.194;2022-08-01T00:08:34;91366.63;;;17.15;99.67
5952;BME280;3001;42.622;23.194;2022-08-01T00:11:00;91361.13;;;17.04;100.00
5952;BME280;3001;42.622;23.194;2022-08-01T00:13:27;91368.66;;;17.21;99.30
5952;BME280;3001;42.622;23.194;2022-08-01T00:15:54;91365.63;;;17.19;100.00
5952;BME280;3001;42.622;23.194;2022-08-01T00:18:21;91363.03;;;17.35;99.92
5952;BME280;3001;42.622;23.194;2022-08-01T00:20:48;91355.66;;;17.40;97.97
5952;BME280;3001;42.622;23.194;2022-08-01T00:23:16;91355.41;;;17.45;99.05
5952;BME280;3001;42.622;23.194;2022-08-01T00:25:42;91345.00;;;17.48;97.77
5952;BME280;3001;42.622;23.194;2022-08-01T00:28:09;91356.31;;;17.68;98.17
5952;BME280;3001;42.622;23.194;2022-08-01T00:30:36;91361.06;;;17.62;98.41
5952;BME280;3001;42.622;23.194;2022-08-01T00:33:03;91341.84;;;17.58;97.04
5952;BME280;3001;42.622;23.194;2022-08-01T00:35:30;91351.66;;;17.61;97.68
5952;BME280;3001;42.622;23.194;2022-08-01T00:37:56;91354.63;;;17.60;96.13
5952;BME280;3001;42.622;23.194;2022-08-01T00:40:25;91349.63;;;17.55;97.64
5952;BME280;3001;42.622;23.194;2022-08-01T00:42:51;91352.69;;;17.57;97.13
5952;BME280;3001;42.622;23.194;2022-08-01T00:45:18;91345.59;;;17.42;98.32
5952;BME280;3001;42.622;23.194;2022-08-01T00:47:45;91346.41;;;17.61;98.01
5952;BME280;3001;42.622;23.194;2022-08-01T00:50:12;91349.63;;;17.70;97.31
5952;BME280;3001;42.622;23.194;2022-08-01T00:52:39;91336.94;;;17.57;95.95
5952;BME280;3001;42.622;23.194;2022-08-01T00:55:07;91351.84;;;17.53;96.31
5952;BME280;3001;42.622;23.194;2022-08-01T00:57:36;91341.06;;;17.27;96.38
5952;BME280;3001;42.622;23.194;2022-08-01T01:00:04;91331.91;;;17.21;98.28
5952;BME280;3001;42.622;23.194;2022-08-01T01:02:31;91335.81;;;17.27;96.59
5952;BME280;3001;42.622;23.194;2022-08-01T01:04:59;91333.03;;;17.36;96.46
5952;BME280;3001;42.622;23.194;2022-08-01T01:07:32;91340.91;;;17.36;96.93
5952;BME280;3001;42.622;23.194;2022-08-01T01:10:02;91340.22;;;17.23;96.87
5952;BME280;3001;42.622;23.194;2022-08-01T01:12:35;91334.28;;;17.26;96.53
5952;BME280;3001;42.622;23.194;2022-08-01T01:15:07;91339.06;;;17.36;95.09
5952;BME280;3001;42.622;23.194;2022-08-01T01:17:40;91346.41;;;17.31;95.50
5952;BME280;3001;42.622;23.194;2022-08-01T01:20:11;91337.69;;;17.27;95.69
5952;BME280;3001;42.622;23.194;2022-08-01T01:22:47;91332.34;;;17.23;96.51
5952;BME280;3001;42.622;23.194;2022-08-01T01:25:39;91323.38;;;17.09;97.42
5952;BME280;3001;42.622;23.194;2022-08-01T01:28:15;91336.50;;;17.09;97.17
5952;BME280;3001;42.622;23.194;2022-08-01T01:30:48;91295.56;;;16.77;97.75
5952;BME280;3001;42.622;23.194;2022-08-01T01:33:19;91325.78;;;16.86;98.33
5952;BME280;3001;42.622;23.194;2022-08-01T01:35:49;91327.41;;;16.91;95.11
5952;BME280;3001;42.622;23.194;2022-08-01T01:38:19;91318.06;;;16.78;96.89
5952;BME280;3001;42.622;23.194;2022-08-01T01:40:49;91325.63;;;16.79;96.16
5952;BME280;3001;42.622;23.194;2022-08-01T01:43:17;91319.53;;;16.75;94.61
5952;BME280;3001;42.622;23.194;2022-08-01T01:45:47;91325.34;;;16.69;94.62
5952;BME280;3001;42.622;23.194;2022-08-01T01:48:17;91306.13;;;16.65;93.89
5952;BME280;3001;42.622;23.194;2022-08-01T01:50:46;91320.53;;;16.71;93.11
5952;BME280;3001;42.622;23.194;2022-08-01T01:53:15;91320.00;;;16.65;93.48
5952;BME280;3001;42.622;23.194;2022-08-01T01:55:44;91314.56;;;16.58;94.65
5952;BME280;3001;42.622;23.194;2022-08-01T01:58:13;91310.56;;;16.49;94.74
5952;BME280;3001;42.622;23.194;2022-08-01T02:00:41;91317.78;;;16.52;92.97
5952;BME280;3001;42.622;23.194;2022-08-01T02:03:11;91309.22;;;16.55;93.47
5952;BME280;3001;42.622;23.194;2022-08-01T02:05:41;91312.69;;;16.59;93.38
5952;BME280;3001;42.622;23.194;2022-08-01T02:08:09;91313.47;;;16.59;92.98
5952;BME280;3001;42.622;23.194;2022-08-01T02:10:39;91316.34;;;16.54;91.45
5952;BME280;3001;42.622;23.194;2022-08-01T02:13:07;91312.28;;;16.57;91.93
5952;BME280;3001;42.622;23.194;2022-08-01T02:15:35;91315.31;;;16.59;91.24
5952;BME280;3001;42.622;23.194;2022-08-01T02:18:05;91310.75;;;16.56;91.42
5952;BME280;3001;42.622;23.194;2022-08-01T02:20:36;91310.75;;;16.56;91.13
5952;BME280;3001;42.622;23.194;2022-08-01T02:23:07;91309.31;;;16.58;92.19
5952;BME280;3001;42.622;23.194;2022-08-01T02:25:39;91310.75;;;16.56;88.37
5952;BME280;3001;42.622;23.194;2022-08-01T02:28:12;91308.41;;;16.39;89.72
5952;BME280;3001;42.622;23.194;2022-08-01T02:30:44;91303.09;;;16.23;90.69
5952;BME280;3001;42.622;23.194;2022-08-01T02:33:16;91308.34;;;16.23;92.36
5952;BME280;3001;42.622;23.194;2022-08-01T02:35:48;91310.41;;;16.30;91.34
5952;BME280;3001;42.622;23.194;2022-08-01T02:38:17;91313.22;;;16.37;91.72
5952;BME280;3001;42.622;23.194;2022-08-01T02:40:47;91303.16;;;16.39;91.73
5952;BME280;3001;42.622;23.194;2022-08-01T02:43:18;91306.34;;;16.32;91.59
5952;BME280;3001;42.622;23.194;2022-08-01T02:45:51;91302.78;;;16.25;94.14
5952;BME280;3001;42.622;23.194;2022-08-01T02:48:20;91303.88;;;16.24;90.27
5952;BME280;3001;42.622;23.194;2022-08-01T02:50:51;91299.66;;;16.07;89.88
5952;BME280;3001;42.622;23.194;2022-08-01T02:53:20;91299.41;;;16.12;90.58
5952;BME280;3001;42.622;23.194;2022-08-01T02:55:50;91294.84;;;16.09;91.41
5952;BME280;3001;42.622;23.194;2022-08-01T02:58:19;91297.59;;;16.01;91.41
5952;BME280;3001;42.622;23.194;2022-08-01T03:00:49;91310.63;;;15.97;92.64
5952;BME280;3001;42.622;23.194;2022-08-01T03:03:18;91297.41;;;15.94;91.83
5952;BME280;3001;42.622;23.194;2022-08-01T03:05:45;91289.13;;;15.92;93.00
5952;BME280;3001;42.622;23.194;2022-08-01T03:08:16;91291.63;;;15.88;95.44
5952;BME280;3001;42.622;23.194;2022-08-01T03:10:45;91294.91;;;15.85;93.47
5952;BME280;3001;42.622;23.194;2022-08-01T03:13:14;91302.34;;;15.95;93.18
5952;BME280;3001;42.622;23.194;2022-08-01T03:15:43;91303.63;;;16.01;90.29
5952;BME280;3001;42.622;23.194;2022-08-01T03:18:11;91293.25;;;15.93;89.71
5952;BME280;3001;42.622;23.194;2022-08-01T03:20:38;91287.84;;;15.86;91.09
5952;BME280;3001;42.622;23.194;2022-08-01T03:23:08;91295.81;;;15.77;92.19
5952;BME280;3001;42.622;23.194;2022-08-01T03:25:39;91301.69;;;15.86;90.86
5952;BME280;3001;42.622;23.194;2022-08-01T03:28:08;91296.19;;;16.03;90.26
5952;BME280;3001;42.622;23.194;2022-08-01T03:30:39;91294.53;;;15.99;89.79
5952;BME280;3001;42.622;23.194;2022-08-01T03:33:07;91290.97;;;15.91;90.63
5952;BME280;3001;42.622;23.194;2022-08-01T03:35:37;91299.47;;;16.00;93.60
5952;BME280;3001;42.622;23.194;2022-08-01T03:38:07;91303.81;;;16.08;92.97
5952;BME280;3001;42.622;23.194;2022-08-01T03:40:39;91305.28;;;16.21;93.00
5952;BME280;3001;42.622;23.194;2022-08-01T03:43:10;91300.91;;;16.25;91.07
5952;BME280;3001;42.622;23.194;2022-08-01T03:45:40;91309.44;;;16.34;92.75
5952;BME280;3001;42.622;23.194;2022-08-01T03:48:10;91305.03;;;16.38;91.48
5952;BME280;3001;42.622;23.194;2022-08-01T03:50:42;91305.06;;;16.26;90.95
5952;BME280;3001;42.622;23.194;2022-08-01T03:53:10;91311.41;;;16.25;92.69
5952;BME280;3001;42.622;23.194;2022-08-01T03:55:41;91311.38;;;16.37;92.62
5952;BME280;3001;42.622;23.194;2022-08-01T03:58:09;91301.88;;;16.33;92.68
5952;BME280;3001;42.622;23.194;2022-08-01T04:00:36;91302.31;;;16.23;93.22
5952;BME280;3001;42.622;23.194;2022-08-01T04:03:06;91304.63;;;16.24;92.50
5952;BME280;3001;42.622;23.194;2022-08-01T04:05:34;91306.41;;;16.20;92.14
5952;BME280;3001;42.622;23.194;2022-08-01T04:08:00;91311.06;;;16.27;93.07
5952;BME280;3001;42.622;23.194;2022-08-01T04:10:30;91315.72;;;16.33;94.32
5952;BME280;3001;42.622;23.194;2022-08-01T04:12:58;91314.19;;;16.32;94.83
5952;BME280;3001;42.622;23.194;2022-08-01T04:15:25;91310.66;;;16.52;94.14
5952;BME280;3001;42.622;23.194;2022-08-01T04:17:52;91312.13;;;16.65;90.95
5952;BME280;3001;42.622;23.194;2022-08-01T04:20:19;91311.66;;;16.75;92.00
5952;BME280;3001;42.622;23.194;2022-08-01T04:22:46;91299.16;;;16.57;94.34
5952;BME280;3001;42.622;23.194;2022-08-01T04:25:16;91300.94;;;16.53;91.92
5952;BME280;3001;42.622;23.194;2022-08-01T04:27:46;91312.03;;;16.62;93.91
5952;BME280;3001;42.622;23.194;2022-08-01T04:30:16;91309.31;;;16.58;94.83
5952;BME280;3001;42.622;23.194;2022-08-01T04:32:46;91310.06;;;16.59;94.15
5952;BME280;3001;42.622;23.194;2022-08-01T04:35:15;91307.06;;;16.72;93.67
5952;BME280;3001;42.622;23.194;2022-08-01T04:37:44;91306.16;;;16.80;95.89
5952;BME280;3001;42.622;23.194;2022-08-01T04:40:14;91311.97;;;16.74;97.41
5952;BME280;3001;42.622;23.194;2022-08-01T04:42:42;91307.00;;;16.84;95.30
5952;BME280;3001;42.622;23.194;2022-08-01T04:45:09;91308.34;;;16.78;94.07
5952;BME280;3001;42.622;23.194;2022-08-01T04:47:39;91312.41;;;16.76;96.18
5952;BME280;3001;42.622;23.194;2022-08-01T04:50:08;91323.56;;;16.73;91.37
5952;BME280;3001;42.622;23.194;2022-08-01T04:52:36;91316.38;;;16.70;93.85
5952;BME280;3001;42.622;23.194;2022-08-01T04:55:05;91306.19;;;16.68;94.66
5952;BME280;3001;42.622;23.194;2022-08-01T04:57:34;91302.16;;;16.71;98.01
5952;BME280;3001;42.622;23.194;2022-08-01T05:00:03;91297.66;;;16.71;98.22
5952;BME280;3001;42.622;23.194;2022-08-01T05:02:32;91310.88;;;16.90;98.83
5952;BME280;3001;42.622;23.194;2022-08-01T05:05:00;91307.34;;;16.98;97.08
5952;BME280;3001;42.622;23.194;2022-08-01T05:07:27;91295.50;;;17.04;96.60
5952;BME280;3001;42.622;23.194;2022-08-01T05:09:53;91308.78;;;17.11;98.66
5952;BME280;3001;42.622;23.194;2022-08-01T05:12:20;91304.88;;;17.21;100.00
5952;BME280;3001;42.622;23.194;2022-08-01T05:14:47;91300.66;;;17.32;100.00
5952;BME280;3001;42.622;23.194;2022-08-01T05:17:14;91301.63;;;17.39;100.00
5952;BME280;3001;42.622;23.194;2022-08-01T05:19:42;91299.97;;;17.50;100.00
5952;BME280;3001;42.622;23.194;2022-08-01T05:22:10;91295.97;;;17.56;100.00
5952;BME280;3001;42.622;23.194;2022-08-01T05:24:39;91302.53;;;17.62;100.00
5952;BME280;3001;42.622;23.194;2022-08-01T05:27:06;91289.88;;;17.67;100.00
5952;BME280;3001;42.622;23.194;2022-08-01T05:29:34;91295.50;;;17.85;100.00
5952;BME280;3001;42.622;23.194;2022-08-01T05:32:01;91304.16;;;17.85;97.33
5952;BME280;3001;42.622;23.194;2022-08-01T05:34:28;91300.34;;;17.83;98.44
5952;BME280;3001;42.622;23.194;2022-08-01T05:36:55;91303.03;;;17.86;97.25
5952;BME280;3001;42.622;23.194;2022-08-01T05:39:23;91300.16;;;17.91;98.62
5952;BME280;3001;42.622;23.194;2022-08-01T05:41:49;91300.03;;;18.03;98.05
5952;BME280;3001;42.622;23.194;2022-08-01T05:44:16;91299.41;;;18.10;96.92
5952;BME280;3001;42.622;23.194;2022-08-01T05:46:43;91305.38;;;18.07;97.51
5952;BME280;3001;42.622;23.194;2022-08-01T05:49:10;91308.91;;;18.14;96.41
5952;BME280;3001;42.622;23.194;2022-08-01T05:51:37;91301.34;;;18.13;94.68
5952;BME280;3001;42.622;23.194;2022-08-01T05:54:04;91317.13;;;18.28;87.84
5952;BME280;3001;42.622;23.194;2022-08-01T05:56:32;91322.94;;;18.37;83.85
5952;BME280;3001;42.622;23.194;2022-08-01T05:58:59;91326.31;;;18.57;89.43
5952;BME280;3001;42.622;23.194;2022-08-01T06:01:26;91327.69;;;18.70;89.50
5952;BME280;3001;42.622;23.194;2022-08-01T06:03:52;91331.63;;;18.79;92.60
5952;BME280;3001;42.622;23.194;2022-08-01T06:06:19;91326.63;;;18.93;85.43
5952;BME280;3001;42.622;23.194;2022-08-01T06:08:46;91322.50;;;18.96;84.82
5952;BME280;3001;42.622;23.194;2022-08-01T06:11:13;91318.19;;;18.84;78.20
5952;BME280;3001;42.622;23.194;2022-08-01T06:13:41;91338.16;;;19.08;80.42
5952;BME280;3001;42.622;23.194;2022-08-01T06:16:08;91336.97;;;19.24;79.17
5952;BME280;3001;42.622;23.194;2022-08-01T06:18:35;91337.84;;;19.31;80.85
5952;BME280;3001;42.622;23.194;2022-08-01T06:21:02;91339.84;;;19.38;78.45
5952;BME280;3001;42.622;23.194;2022-08-01T06:23:29;91343.28;;;19.42;74.18
5952;BME280;3001;42.622;23.194;2022-08-01T06:25:56;91344.81;;;19.43;70.70
5952;BME280;3001;42.622;23.194;2022-08-01T06:28:23;91341.31;;;19.58;75.26
5952;BME280;3001;42.622;23.194;2022-08-01T06:30:51;91336.19;;;19.68;77.81
5952;BME280;3001;42.622;23.194;2022-08-01T06:33:18;91346.13;;;19.78;71.84
5952;BME280;3001;42.622;23.194;2022-08-01T06:35:45;91348.47;;;19.83;71.33
5952;BME280;3001;42.622;23.194;2022-08-01T06:38:12;91341.00;;;19.89;72.39
5952;BME280;3001;42.622;23.194;2022-08-01T06:40:39;91334.28;;;19.91;70.27
5952;BME280;3001;42.622;23.194;2022-08-01T06:43:05;91338.53;;;19.99;70.46
5952;BME280;3001;42.622;23.194;2022-08-01T06:45:33;91310.41;;;20.07;72.96
5952;BME280;3001;42.622;23.194;2022-08-01T06:48:04;91324.13;;;20.19;71.25
5952;BME280;3001;42.622;23.194;2022-08-01T06:50:31;91329.28;;;20.38;68.71
5952;BME280;3001;42.622;23.194;2022-08-01T06:52:58;91322.19;;;20.42;69.70
5952;BME280;3001;42.622;23.194;2022-08-01T06:55:25;91315.44;;;20.45;69.65
5952;BME280;3001;42.622;23.194;2022-08-01T06:57:52;91327.59;;;20.53;71.32
5952;BME280;3001;42.622;23.194;2022-08-01T07:00:20;91318.25;;;20.62;67.65
5952;BME280;3001;42.622;23.194;2022-08-01T07:02:47;91315.28;;;20.64;69.40
5952;BME280;3001;42.622;23.194;2022-08-01T07:05:16;91317.75;;;20.83;71.11
5952;BME280;3001;42.622;23.194;2022-08-01T07:07:43;91320.53;;;20.93;74.40
5952;BME280;3001;42.622;23.194;2022-08-01T07:10:10;91323.97;;;20.97;69.25
5952;BME280;3001;42.622;23.194;2022-08-01T07:12:37;91325.94;;;21.04;68.11
5952;BME280;3001;42.622;23.194;2022-08-01T07:15:06;91325.25;;;21.13;68.22
5952;BME280;3001;42.622;23.194;2022-08-01T07:17:37;91318.34;;;21.02;70.94
5952;BME280;3001;42.622;23.194;2022-08-01T07:20:05;91332.09;;;21.18;68.73
5952;BME280;3001;42.622;23.194;2022-08-01T07:22:34;91332.19;;;21.25;67.96
5952;BME280;3001;42.622;23.194;2022-08-01T07:25:00;91341.44;;;21.45;70.47
5952;BME280;3001;42.622;23.194;2022-08-01T07:27:27;91334.00;;;21.61;64.03
5952;BME280;3001;42.622;23.194;2022-08-01T07:29:54;91332.59;;;21.70;66.59
5952;BME280;3001;42.622;23.194;2022-08-01T07:32:21;91327.31;;;21.70;68.17
5952;BME280;3001;42.622;23.194;2022-08-01T07:34:47;91325.94;;;21.87;67.92
5952;BME280;3001;42.622;23.194;2022-08-01T07:37:14;91324.44;;;21.89;67.90
5952;BME280;3001;42.622;23.194;2022-08-01T07:39:42;91331.22;;;21.87;64.32
5952;BME280;3001;42.622;23.194;2022-08-01T07:42:09;91324.88;;;21.98;66.26
5952;BME280;3001;42.622;23.194;2022-08-01T07:44:36;91326.44;;;22.06;66.93
5952;BME280;3001;42.622;23.194;2022-08-01T07:47:03;91328.84;;;22.29;66.61
5952;BME280;3001;42.622;23.194;2022-08-01T07:49:30;91326.66;;;22.38;65.23
5952;BME280;3001;42.622;23.194;2022-08-01T07:51:57;91319.72;;;22.19;64.17
5952;BME280;3001;42.622;23.194;2022-08-01T07:54:24;91316.00;;;22.34;64.72
5952;BME280;3001;42.622;23.194;2022-08-01T07:56:54;91321.38;;;22.41;66.25
5952;BME280;3001;42.622;23.194;2022-08-01T07:59:21;91322.91;;;22.46;66.49
5952;BME280;3001;42.622;23.194;2022-08-01T08:01:49;91329.38;;;22.52;66.19
5952;BME280;3001;42.622;23.194;2022-08-01T08:04:16;91338.13;;;22.63;69.59
5952;BME280;3001;42.622;23.194;2022-08-01T08:06:43;91337.75;;;22.64;71.03
5952;BME280;3001;42.622;23.194;2022-08-01T08:09:13;91319.16;;;22.50;71.37
5952;BME280;3001;42.622;23.194;2022-08-01T08:11:41;91316.88;;;22.52;65.68
5952;BME280;3001;42.622;23.194;2022-08-01T08:14:09;91322.59;;;22.58;67.20
5952;BME280;3001;42.622;23.194;2022-08-01T08:16:36;91334.69;;;22.52;69.73
5952;BME280;3001;42.622;23.194;2022-08-01T08:19:03;91336.16;;;22.49;64.73
5952;BME280;3001;42.622;23.194;2022-08-01T08:21:30;91324.09;;;22.55;67.43
5952;BME280;3001;42.622;23.194;2022-08-01T08:23:57;91339.19;;;22.48;67.51
5952;BME280;3001;42.622;23.194;2022-08-01T08:26:51;91332.53;;;22.78;64.54
5952;BME280;3001;42.622;23.194;2022-08-01T08:29:19;91326.16;;;23.00;67.28
5952;BME280;3001;42.622;23.194;2022-08-01T08:31:47;91339.47;;;23.14;69.02
5952;BME280;3001;42.622;23.194;2022-08-01T08:34:14;91341.41;;;23.24;63.62
5952;BME280;3001;42.622;23.194;2022-08-01T08:36:40;91339.16;;;23.36;62.47
5952;BME280;3001;42.622;23.194;2022-08-01T08:39:07;91330.06;;;23.48;62.52
5952;BME280;3001;42.622;23.194;2022-08-01T08:41:34;91330.88;;;23.83;63.71
5952;BME280;3001;42.622;23.194;2022-08-01T08:44:02;91325.56;;;23.97;66.28
5952;BME280;3001;42.622;23.194;2022-08-01T08:46:31;91325.16;;;24.09;62.51
5952;BME280;3001;42.622;23.194;2022-08-01T08:49:00;91314.16;;;24.32;65.20
5952;BME280;3001;42.622;23.194;2022-08-01T08:51:30;91314.13;;;24.46;64.20
5952;BME280;3001;42.622;23.194;2022-08-01T08:53:58;91311.06;;;24.47;63.76
5952;BME280;3001;42.622;23.194;2022-08-01T08:56:25;91309.53;;;24.60;61.89
5952;BME280;3001;42.622;23.194;2022-08-01T08:58:55;91318.28;;;24.57;59.71
5952;BME280;3001;42.622;23.194;2022-08-01T09:01:22;91306.88;;;24.46;60.47
5952;BME280;3001;42.622;23.194;2022-08-01T09:03:51;91330.78;;;24.46;61.43
5952;BME280;3001;42.622;23.194;2022-08-01T09:06:17;91332.34;;;24.37;59.56
5952;BME280;3001;42.622;23.194;2022-08-01T09:08:44;91322.50;;;24.20;60.62
5952;BME280;3001;42.622;23.194;2022-08-01T09:11:11;91324.41;;;24.16;60.38
5952;BME280;3001;42.622;23.194;2022-08-01T09:13:38;91318.72;;;24.21;61.00
5952;BME280;3001;42.622;23.194;2022-08-01T09:16:05;91308.41;;;24.58;58.71
5952;BME280;3001;42.622;23.194;2022-08-01T09:18:33;91306.53;;;24.55;59.41
5952;BME280;3001;42.622;23.194;2022-08-01T09:21:10;91316.41;;;24.54;60.17
5952;BME280;3001;42.622;23.194;2022-08-01T09:23:39;91315.59;;;24.50;59.23
5952;BME280;3001;42.622;23.194;2022-08-01T09:26:08;91317.91;;;24.38;57.18
5952;BME280;3001;42.622;23.194;2022-08-01T09:28:35;91319.41;;;24.49;58.45
5952;BME280;3001;42.622;23.194;2022-08-01T09:31:07;91325.88;;;24.45;57.16
5952;BME280;3001;42.622;23.194;2022-08-01T09:33:50;91319.81;;;24.30;57.12
5952;BME280;3001;42.622;23.194;2022-08-01T09:36:19;91316.06;;;24.17;59.36
5952;BME280;3001;42.622;23.194;2022-08-01T09:38:46;91311.88;;;24.23;60.25
5952;BME280;3001;42.622;23.194;2022-08-01T09:41:13;91316.78;;;24.28;60.26
5952;BME280;3001;42.622;23.194;2022-08-01T09:43:47;91295.22;;;24.23;60.79
5952;BME280;3001;42.622;23.194;2022-08-01T09:46:15;91319.03;;;24.58;60.61
5952;BME280;3001;42.622;23.194;2022-08-01T09:48:55;91315.97;;;24.66;60.85
5952;BME280;3001;42.622;23.194;2022-08-01T09:51:29;91314.44;;;24.69;60.20
5952;BME280;3001;42.622;23.194;2022-08-01T09:53:57;91312.53;;;24.73;60.88
5952;BME280;3001;42.622;23.194;2022-08-01T09:56:24;91310.53;;;24.97;58.72
5952;BME280;3001;42.622;23.194;2022-08-01T09:58:53;91314.19;;;25.31;58.99
5952;BME280;3001;42.622;23.194;2022-08-01T10:01:21;91314.13;;;25.38;58.94
5952;BME280;3001;42.622;23.194;2022-08-01T10:04:07;91313.97;;;25.63;57.47
5952;BME280;3001;42.622;23.194;2022-08-01T10:06:36;91320.09;;;25.60;58.24
5952;BME280;3001;42.622;23.194;2022-08-01T10:09:03;91317.50;;;25.49;58.82
5952;BME280;3001;42.622;23.194;2022-08-01T10:11:31;91313.41;;;25.31;62.10
5952;BME280;3001;42.622;23.194;2022-08-01T10:13:59;91319.44;;;25.45;58.11
5952;BME280;3001;42.622;23.194;2022-08-01T10:16:28;91311.38;;;25.56;56.77
5952;BME280;3001;42.622;23.194;2022-08-01T10:18:56;91293.41;;;25.67;53.53
5952;BME280;3001;42.622;23.194;2022-08-01T10:21:23;91287.28;;;25.73;58.54
5952;BME280;3001;42.622;23.194;2022-08-01T10:23:55;91290.75;;;25.67;58.83
5952;BME280;3001;42.622;23.194;2022-08-01T10:26:25;91306.28;;;25.75;56.75
5952;BME280;3001;42.622;23.194;2022-08-01T10:28:54;91296.44;;;25.69;59.31
5952;BME280;3001;42.622;23.194;2022-08-01T10:31:21;91300.75;;;25.52;60.10
5952;BME280;3001;42.622;23.194;2022-08-01T10:33:49;91301.59;;;25.39;55.25
5952;BME280;3001;42.622;23.194;2022-08-01T10:36:18;91300.75;;;25.49;54.92
5952;BME280;3001;42.622;23.194;2022-08-01T10:38:46;91295.16;;;25.36;53.49
5952;BME280;3001;42.622;23.194;2022-08-01T10:41:15;91289.09;;;25.29;53.81
5952;BME280;3001;42.622;23.194;2022-08-01T10:43:44;91295.13;;;25.40;57.41
5952;BME280;3001;42.622;23.194;2022-08-01T10:46:11;91295.88;;;25.44;55.99
5952;BME280;3001;42.622;23.194;2022-08-01T10:48:43;91290.97;;;25.39;56.41
5952;BME280;3001;42.622;23.194;2022-08-01T10:51:12;91299.38;;;25.34;55.87
5952;BME280;3001;42.622;23.194;2022-08-01T10:53:46;91287.66;;;25.21;54.77
5952;BME280;3001;42.622;23.194;2022-08-01T10:56:14;91274.34;;;25.17;56.10
5952;BME280;3001;42.622;23.194;2022-08-01T10:58:43;91276.59;;;25.26;55.88
5952;BME280;3001;42.622;23.194;2022-08-01T11:01:18;91289.03;;;25.39;59.61
5952;BME280;3001;42.622;23.194;2022-08-01T11:03:58;91286.34;;;25.46;56.91
5952;BME280;3001;42.622;23.194;2022-08-01T11:06:34;91274.38;;;25.72;60.20
5952;BME280;3001;42.622;23.194;2022-08-01T11:09:04;91284.19;;;25.82;56.85
5952;BME280;3001;42.622;23.194;2022-08-01T11:11:32;91275.13;;;25.76;55.01
5952;BME280;3001;42.622;23.194;2022-08-01T11:14:19;91282.91;;;25.53;58.08
5952;BME280;3001;42.622;23.194;2022-08-01T11:16:46;91283.56;;;25.60;60.75
5952;BME280;3001;42.622;23.194;2022-08-01T11:19:13;91264.84;;;25.74;62.20
5952;BME280;3001;42.622;23.194;2022-08-01T11:21:59;91269.72;;;25.83;58.71
5952;BME280;3001;42.622;23.194;2022-08-01T11:24:54;91273.31;;;26.10;58.99
5952;BME280;3001;42.622;23.194;2022-08-01T11:27:26;91273.16;;;26.24;54.17
5952;BME280;3001;42.622;23.194;2022-08-01T11:30:23;91280.13;;;26.11;55.93
5952;BME280;3001;42.622;23.194;2022-08-01T11:32:53;91276.03;;;26.03;53.95
5952;BME280;3001;42.622;23.194;2022-08-01T11:35:22;91277.47;;;26.11;55.28
5952;BME280;3001;42.622;23.194;2022-08-01T11:37:52;91273.03;;;25.97;53.64
5952;BME280;3001;42.622;23.194;2022-08-01T11:40:22;91267.13;;;25.76;56.67
5952;BME280;3001;42.622;23.194;2022-08-01T11:43:17;91273.50;;;25.89;58.10
5952;BME280;3001;42.622;23.194;2022-08-01T11:45:47;91271.53;;;25.96;57.98
5952;BME280;3001;42.622;23.194;2022-08-01T11:48:18;91275.59;;;26.08;55.13
5952;BME280;3001;42.622;23.194;2022-08-01T11:50:45;91278.50;;;26.24;55.04
5952;BME280;3001;42.622;23.194;2022-08-01T11:53:12;91269.50;;;26.11;55.92
5952;BME280;3001;42.622;23.194;2022-08-01T11:55:45;91274.09;;;26.07;57.77
5952;BME280;3001;42.622;23.194;2022-08-01T11:58:16;91274.16;;;26.00;57.44
5952;BME280;3001;42.622;23.194;2022-08-01T12:00:50;91266.25;;;26.30;58.90
5952;BME280;3001;42.622;23.194;2022-08-01T12:03:23;91260.78;;;26.44;58.60
5952;BME280;3001;42.622;23.194;2022-08-01T12:05:51;91270.19;;;26.55;55.32
5952;BME280;3001;42.622;23.194;2022-08-01T12:08:24;91264.44;;;26.60;55.44
5952;BME280;3001;42.622;23.194;2022-08-01T12:10:51;91266.41;;;26.53;55.42
5952;BME280;3001;42.622;23.194;2022-08-01T12:13:20;91266.78;;;26.55;56.43
5952;BME280;3001;42.622;23.194;2022-08-01T12:15:47;91270.56;;;26.57;54.09
5952;BME280;3001;42.622;23.194;2022-08-01T12:18:15;91259.06;;;26.64;54.81
5952;BME280;3001;42.622;23.194;2022-08-01T12:20:44;91259.97;;;26.83;56.91
5952;BME280;3001;42.622;23.194;2022-08-01T12:23:12;91257.06;;;27.01;56.46
5952;BME280;3001;42.622;23.194;2022-08-01T12:25:40;91257.94;;;27.24;56.13
5952;BME280;3001;42.622;23.194;2022-08-01T12:28:10;91252.03;;;27.36;59.73
5952;BME280;3001;42.622;23.194;2022-08-01T12:30:39;91263.47;;;27.37;56.69
5952;BME280;3001;42.622;23.194;2022-08-01T12:33:08;91266.91;;;27.37;56.38
5952;BME280;3001;42.622;23.194;2022-08-01T12:35:37;91259.59;;;27.41;58.87
5952;BME280;3001;42.622;23.194;2022-08-01T12:38:05;91252.22;;;27.75;58.06
5952;BME280;3001;42.622;23.194;2022-08-01T12:40:34;91259.53;;;27.94;56.46
5952;BME280;3001;42.622;23.194;2022-08-01T12:43:03;91265.88;;;28.04;51.26
5952;BME280;3001;42.622;23.194;2022-08-01T12:45:33;91259.19;;;28.15;51.73
5952;BME280;3001;42.622;23.194;2022-08-01T12:48:06;91258.22;;;28.29;51.98
5952;BME280;3001;42.622;23.194;2022-08-01T12:50:34;91261.41;;;28.43;50.63
5952;BME280;3001;42.622;23.194;2022-08-01T12:53:03;91251.94;;;28.58;49.52
5952;BME280;3001;42.622;23.194;2022-08-01T12:55:30;91251.47;;;28.63;49.64
5952;BME280;3001;42.622;23.194;2022-08-01T12:58:04;91252.03;;;28.55;47.65
5952;BME280;3001;42.622;23.194;2022-08-01T13:00:31;91255.78;;;28.57;49.62
5952;BME280;3001;42.622;23.194;2022-08-01T13:03:05;91254.31;;;28.33;47.62
5952;BME280;3001;42.622;23.194;2022-08-01T13:05:42;91265.50;;;28.25;48.59
5952;BME280;3001;42.622;23.194;2022-08-01T13:08:10;91246.44;;;28.03;49.73
5952;BME280;3001;42.622;23.194;2022-08-01T13:10:38;91244.28;;;27.95;50.78
5952;BME280;3001;42.622;23.194;2022-08-01T13:13:05;91235.91;;;27.70;52.05
5952;BME280;3001;42.622;23.194;2022-08-01T13:15:34;91236.34;;;27.65;51.56
5952;BME280;3001;42.622;23.194;2022-08-01T13:18:23;91239.69;;;27.72;51.17
5952;BME280;3001;42.622;23.194;2022-08-01T13:21:07;91242.63;;;27.81;55.03